Time;durP1;ratioP1;P1;durP2;ratioP2;P2;SDS_P1;SDS_P2;PMS_P1;PMS_P2;Temp;Humidity;BMP_temperature;BMP_pressure;BME280_temperature;BME280_humidity;BME280_pressure;Samples;Min_cycle;Max_cycle;Signal;HPM_P1;HPM_P2
2024/02/04 00:00:40;;;;;;;23.35;10.50;;;11.20;89.20;;;;;;9201836;19;20029;-71
2024/02/04 00:03:48;;;;;;;21.58;10.20;;;11.30;89.70;;;;;;9193812;19;20022;-71
2024/02/04 00:06:54;;;;;;;24.08;8.20;;;11.20;89.40;;;;;;9193606;19;20010;-72
2024/02/04 00:10:01;;;;;;;18.33;8.27;;;11.10;89.30;;;;;;9197697;19;20022;-70
2024/02/04 00:13:07;;;;;;;14.82;7.68;;;11.10;89.30;;;;;;9198116;19;20906;-70
2024/02/04 00:16:17;;;;;;;10.07;5.55;;;11.10;89.40;;;;;;9195534;19;20022;-71
2024/02/04 00:19:23;;;;;;;10.27;5.50;;;11.10;89.40;;;;;;9190634;19;20018;-70
2024/02/04 00:22:30;;;;;;;14.27;5.40;;;11.10;89.60;;;;;;9192417;19;20022;-71
2024/02/04 00:25:36;;;;;;;10.35;5.05;;;11.30;89.50;;;;;;9192795;19;20026;-71
2024/02/04 00:28:43;;;;;;;13.43;4.07;;;11.10;89.40;;;;;;9194242;19;20010;-72
2024/02/04 00:31:52;;;;;;;11.65;4.15;;;11.10;89.60;;;;;;9195396;19;20054;-72
2024/02/04 00:34:59;;;;;;;13.77;4.07;;;11.00;89.40;;;;;;9189076;19;20029;-70
2024/02/04 00:38:05;;;;;;;11.65;4.13;;;11.00;89.30;;;;;;9189915;19;20007;-72
2024/02/04 00:41:13;;;;;;;12.00;4.10;;;11.00;89.30;;;;;;9194816;19;20018;-72
2024/02/04 00:44:18;;;;;;;8.77;4.03;;;11.00;89.50;;;;;;9189795;19;20010;-72
2024/02/04 00:47:28;;;;;;;12.68;4.63;;;11.00;89.40;;;;;;9192655;19;20019;-70
2024/02/04 00:50:34;;;;;;;11.25;4.25;;;11.00;89.40;;;;;;9193894;19;20115;-71
2024/02/04 00:53:41;;;;;;;14.90;4.65;;;10.90;89.40;;;;;;9191668;19;20369;-73
2024/02/04 00:56:47;;;;;;;10.50;4.30;;;10.90;89.40;;;;;;9190004;19;20503;-72
2024/02/04 00:59:55;;;;;;;12.70;5.32;;;10.90;89.50;;;;;;9192348;19;20037;-70
2024/02/04 01:03:03;;;;;;;13.27;5.13;;;10.90;89.50;;;;;;9195047;19;20019;-72
2024/02/04 01:06:11;;;;;;;11.98;6.13;;;10.90;89.60;;;;;;9193188;19;20014;-71
2024/02/04 01:09:17;;;;;;;10.73;4.97;;;11.00;89.70;;;;;;9200857;19;20010;-73
2024/02/04 01:12:25;;;;;;;15.85;5.43;;;10.90;89.50;;;;;;9205332;19;20091;-72
2024/02/04 01:15:31;;;;;;;14.02;5.80;;;10.90;89.50;;;;;;9202052;19;20014;-72
2024/02/04 01:18:41;;;;;;;12.55;5.35;;;10.90;89.50;;;;;;9203556;19;20018;-73
2024/02/04 01:21:47;;;;;;;10.48;5.07;;;11.00;89.60;;;;;;9191461;19;20025;-72
2024/02/04 01:24:54;;;;;;;14.45;6.50;;;10.90;89.50;;;;;;9195680;19;20045;-73
2024/02/04 01:28:00;;;;;;;15.30;6.03;;;10.90;89.50;;;;;;9196085;19;20079;-75
2024/02/04 01:31:08;;;;;;;12.60;7.05;;;10.90;89.50;;;;;;9186850;19;20006;-72
2024/02/04 01:34:16;;;;;;;12.73;6.25;;;10.90;89.70;;;;;;9196003;19;20014;-71
2024/02/04 01:37:24;;;;;;;15.23;7.22;;;10.90;89.90;;;;;;9198828;19;20019;-71
2024/02/04 01:40:30;;;;;;;12.50;6.65;;;10.90;89.60;;;;;;9196800;19;20017;-70
2024/02/04 01:43:37;;;;;;;10.70;6.03;;;11.00;89.60;;;;;;9192659;19;20024;-72
2024/02/04 01:46:44;;;;;;;13.48;6.45;;;11.00;89.70;;;;;;9196403;19;20032;-72
2024/02/04 01:49:54;;;;;;;14.88;6.13;;;10.90;89.70;;;;;;9196658;19;20061;-72
2024/02/04 01:53:00;;;;;;;13.75;6.38;;;11.00;89.70;;;;;;9192748;19;20044;-73
2024/02/04 01:56:11;;;;;;;16.92;6.75;;;10.90;89.70;;;;;;9191975;19;20032;-74
2024/02/04 01:59:16;;;;;;;15.85;7.05;;;11.00;90.00;;;;;;9197142;19;20002;-72
2024/02/04 02:02:24;;;;;;;12.38;6.53;;;10.90;89.80;;;;;;9189020;19;20015;-71
2024/02/04 02:05:33;;;;;;;21.73;7.30;;;10.90;89.80;;;;;;9191245;19;20010;-70
2024/02/04 02:08:40;;;;;;;12.00;7.35;;;10.90;89.80;;;;;;9190870;19;20019;-72
2024/02/04 02:11:50;;;;;;;15.73;6.55;;;10.90;89.80;;;;;;9193945;19;20108;-72
2024/02/04 02:15:06;;;;;;;19.10;7.27;;;10.90;89.80;;;;;;9186215;19;20018;-72
2024/02/04 02:18:16;;;;;;;19.48;8.13;;;10.90;89.80;;;;;;9190964;19;20385;-71
2024/02/04 02:21:54;;;;;;;11.80;7.20;;;11.00;90.00;;;;;;9189349;19;20046;-71
2024/02/04 02:25:05;;;;;;;16.00;7.22;;;11.00;89.80;;;;;;9196325;19;20015;-72
2024/02/04 02:28:14;;;;;;;13.05;5.28;;;10.90;89.80;;;;;;9196247;19;20036;-73
2024/02/04 02:31:20;;;;;;;11.15;5.40;;;11.00;89.80;;;;;;9194904;19;20018;-72
2024/02/04 02:34:37;;;;;;;10.05;4.90;;;10.90;89.70;;;;;;9190023;19;20018;-71
2024/02/04 02:37:49;;;;;;;12.88;5.40;;;10.90;89.80;;;;;;9188315;19;20014;-73
2024/02/04 02:41:05;;;;;;;15.00;4.93;;;10.90;90.20;;;;;;9185941;19;20026;-74
2024/02/04 02:44:12;;;;;;;12.35;4.82;;;10.80;89.80;;;;;;9191499;19;20420;-70
2024/02/04 02:47:21;;;;;;;7.93;4.45;;;10.90;90.20;;;;;;9190711;19;20015;-73
2024/02/04 02:50:26;;;;;;;13.55;4.78;;;10.80;89.80;;;;;;9187452;19;20019;-70
2024/02/04 02:53:34;;;;;;;10.75;4.13;;;10.80;89.80;;;;;;9189482;19;20003;-72
2024/02/04 02:56:42;;;;;;;8.00;4.22;;;10.80;89.60;;;;;;9191167;19;20056;-71
2024/02/04 02:59:50;;;;;;;10.75;3.95;;;10.70;89.50;;;;;;9189552;19;20107;-72
2024/02/04 03:02:55;;;;;;;15.93;5.20;;;10.80;89.50;;;;;;9189891;19;20544;-73
2024/02/04 03:06:03;;;;;;;11.25;4.40;;;10.60;89.50;;;;;;9194025;19;20033;-72
2024/02/04 03:09:10;;;;;;;10.85;4.03;;;10.60;89.50;;;;;;9188274;19;20010;-70
2024/02/04 03:12:20;;;;;;;7.25;3.67;;;10.50;89.50;;;;;;9188855;19;20014;-72
2024/02/04 03:15:25;;;;;;;9.70;3.63;;;10.50;89.50;;;;;;9183284;19;20023;-71
2024/02/04 03:18:33;;;;;;;11.35;4.30;;;10.60;89.70;;;;;;9190067;19;21283;-72
2024/02/04 03:21:39;;;;;;;11.32;3.95;;;10.50;89.60;;;;;;9184939;19;20098;-72
2024/02/04 03:24:46;;;;;;;13.60;5.18;;;10.40;89.40;;;;;;9186936;19;20026;-72
2024/02/04 03:27:55;;;;;;;9.02;3.63;;;10.40;89.50;;;;;;9185605;19;20049;-71
2024/02/04 03:31:02;;;;;;;14.65;4.25;;;10.50;89.70;;;;;;9188475;19;20015;-71
2024/02/04 03:34:08;;;;;;;10.85;4.05;;;10.50;89.50;;;;;;9184296;19;20003;-72
2024/02/04 03:37:16;;;;;;;10.02;4.82;;;10.40;89.50;;;;;;9183984;19;20032;-72
2024/02/04 03:40:24;;;;;;;13.82;4.93;;;10.30;89.30;;;;;;9183070;19;20058;-71
2024/02/04 03:43:35;;;;;;;13.05;4.78;;;10.40;89.40;;;;;;9183508;19;20021;-70
2024/02/04 03:46:41;;;;;;;11.82;4.20;;;10.30;89.30;;;;;;9191258;19;20487;-71
2024/02/04 03:49:49;;;;;;;13.80;5.07;;;10.30;89.40;;;;;;9187652;19;20472;-70
2024/02/04 03:52:55;;;;;;;15.82;5.07;;;10.30;89.60;;;;;;9186668;19;20015;-71
2024/02/04 03:56:04;;;;;;;19.02;5.00;;;10.30;89.30;;;;;;9187204;19;20014;-73
2024/02/04 03:59:13;;;;;;;15.77;4.78;;;10.20;89.30;;;;;;9188999;19;20481;-70
2024/02/04 04:02:20;;;;;;;15.13;4.40;;;10.10;89.30;;;;;;9185058;19;20018;-71
2024/02/04 04:05:26;;;;;;;9.35;3.85;;;10.20;89.30;;;;;;9188095;19;20015;-70
2024/02/04 04:08:34;;;;;;;12.88;3.53;;;10.20;89.20;;;;;;9186890;19;20074;-72
2024/02/04 04:11:40;;;;;;;16.17;4.50;;;10.20;89.40;;;;;;9190849;19;20015;-72
2024/02/04 04:14:50;;;;;;;11.77;3.90;;;10.10;89.20;;;;;;9198103;19;20019;-71
2024/02/04 04:17:55;;;;;;;11.43;4.40;;;10.10;89.20;;;;;;9195997;19;20470;-73
2024/02/04 04:21:03;;;;;;;19.42;5.25;;;10.10;89.10;;;;;;9200387;19;20030;-72
2024/02/04 04:24:09;;;;;;;10.00;4.05;;;10.00;89.00;;;;;;9193430;19;20024;-71
2024/02/04 04:27:16;;;;;;;8.98;3.60;;;10.00;89.00;;;;;;9196545;19;20055;-72
2024/02/04 04:30:25;;;;;;;9.65;3.67;;;10.00;89.10;;;;;;9196333;19;20017;-71
2024/02/04 04:33:34;;;;;;;8.93;4.30;;;10.00;89.10;;;;;;9195584;19;20065;-72
2024/02/04 04:36:39;;;;;;;10.18;4.90;;;10.00;89.10;;;;;;9195912;19;20085;-71
2024/02/04 04:39:47;;;;;;;19.88;4.35;;;9.90;89.00;;;;;;9198352;19;20010;-73
2024/02/04 04:42:53;;;;;;;15.52;4.20;;;9.90;89.10;;;;;;9199370;19;20010;-70
2024/02/04 04:46:04;;;;;;;17.48;3.83;;;9.90;89.00;;;;;;9200159;19;20050;-71
2024/02/04 04:49:10;;;;;;;9.05;3.42;;;9.90;89.00;;;;;;9192797;19;20015;-71
2024/02/04 04:52:18;;;;;;;11.00;3.40;;;9.80;88.80;;;;;;9188475;19;20026;-72
2024/02/04 04:55:24;;;;;;;11.15;3.28;;;9.80;88.90;;;;;;9191468;19;20021;-72
2024/02/04 04:58:31;;;;;;;18.38;4.00;;;9.70;88.80;;;;;;9194202;19;20023;-72
2024/02/04 05:01:40;;;;;;;11.13;2.83;;;10.00;89.00;;;;;;9195581;19;20018;-71
2024/02/04 05:04:48;;;;;;;13.90;3.28;;;9.80;88.80;;;;;;9196646;19;20025;-72
2024/02/04 05:07:53;;;;;;;9.95;2.83;;;9.70;88.80;;;;;;9193526;19;20034;-71
2024/02/04 05:11:01;;;;;;;7.70;2.55;;;9.70;88.80;;;;;;9195031;19;20014;-70
2024/02/04 05:14:06;;;;;;;9.38;2.40;;;9.70;88.80;;;;;;9190857;19;20015;-72
2024/02/04 05:17:18;;;;;;;9.05;2.42;;;9.70;88.80;;;;;;9191047;19;20034;-72
2024/02/04 05:20:23;;;;;;;12.65;2.25;;;9.70;88.80;;;;;;9192704;19;20010;-72
2024/02/04 05:23:31;;;;;;;11.07;2.30;;;9.70;88.80;;;;;;9189991;19;20524;-71
2024/02/04 05:26:36;;;;;;;14.63;3.25;;;9.60;88.80;;;;;;9189360;19;20013;-70
2024/02/04 05:29:44;;;;;;;7.47;2.20;;;9.60;88.70;;;;;;9184930;19;20026;-72
2024/02/04 05:32:53;;;;;;;11.98;2.20;;;9.60;88.70;;;;;;9195490;19;20010;-71
2024/02/04 05:36:00;;;;;;;16.58;2.08;;;9.60;88.80;;;;;;9195485;19;20021;-72
2024/02/04 05:39:13;;;;;;;9.00;2.22;;;9.60;88.70;;;;;;9187933;19;20026;-73
2024/02/04 05:42:21;;;;;;;6.80;2.10;;;9.50;88.80;;;;;;9192387;19;20022;-72
2024/02/04 05:45:26;;;;;;;15.98;2.53;;;9.60;88.70;;;;;;9194861;19;20490;-71
2024/02/04 05:48:36;;;;;;;6.10;1.67;;;9.60;88.70;;;;;;9191880;19;20014;-71
2024/02/04 05:51:43;;;;;;;15.52;3.13;;;9.50;88.70;;;;;;9188987;19;20021;-71
2024/02/04 05:54:51;;;;;;;6.78;1.50;;;9.50;88.60;;;;;;9190489;19;20016;-72
2024/02/04 05:57:56;;;;;;;14.73;2.13;;;9.50;88.60;;;;;;9187542;19;20018;-71
2024/02/04 06:01:05;;;;;;;13.30;2.22;;;9.50;88.60;;;;;;9186007;19;20450;-71
2024/02/04 06:04:13;;;;;;;5.07;1.55;;;9.40;88.50;;;;;;9188894;19;20014;-71
2024/02/04 06:07:21;;;;;;;17.85;2.38;;;9.40;88.70;;;;;;9188392;19;20010;-71
2024/02/04 06:10:27;;;;;;;11.38;2.33;;;9.50;88.70;;;;;;9184978;19;20063;-72
2024/02/04 06:13:34;;;;;;;7.30;1.88;;;9.40;88.50;;;;;;9186076;19;20018;-72
2024/02/04 06:16:40;;;;;;;14.98;1.98;;;9.50;88.60;;;;;;9187840;19;20013;-70
2024/02/04 06:19:50;;;;;;;6.88;1.67;;;9.50;88.60;;;;;;9190332;19;20026;-71
2024/02/04 06:22:57;;;;;;;9.60;1.65;;;9.50;88.60;;;;;;9188938;19;20014;-72
2024/02/04 06:26:06;;;;;;;4.85;1.30;;;9.40;88.40;;;;;;9195104;19;20034;-71
2024/02/04 06:29:11;;;;;;;6.70;1.55;;;9.40;88.40;;;;;;9195134;19;20050;-72
2024/02/04 06:32:20;;;;;;;4.60;1.58;;;9.40;88.40;;;;;;9192306;19;20011;-73
2024/02/04 06:35:28;;;;;;;10.73;2.03;;;9.40;88.40;;;;;;9192091;19;20015;-72
2024/02/04 06:38:35;;;;;;;9.13;2.05;;;9.40;88.30;;;;;;9190799;19;20026;-72
2024/02/04 06:41:41;;;;;;;9.85;1.83;;;9.30;88.30;;;;;;9193700;19;20046;-71
2024/02/04 06:44:48;;;;;;;14.27;2.38;;;9.40;88.40;;;;;;9188117;19;20037;-71
2024/02/04 06:47:54;;;;;;;13.15;2.25;;;9.30;88.20;;;;;;9186788;19;20086;-72
2024/02/04 06:51:04;;;;;;;8.73;1.70;;;9.30;88.10;;;;;;9185348;19;20014;-71
2024/02/04 06:54:10;;;;;;;14.82;2.25;;;9.30;88.40;;;;;;9189874;19;20591;-70
2024/02/04 06:57:17;;;;;;;14.75;2.08;;;9.30;88.70;;;;;;9180343;19;20026;-72
2024/02/04 07:00:23;;;;;;;8.85;1.70;;;9.30;88.00;;;;;;9186429;19;20018;-71
2024/02/04 07:03:32;;;;;;;16.70;2.40;;;9.30;87.90;;;;;;9202074;19;20030;-71
2024/02/04 07:06:40;;;;;;;11.82;1.83;;;9.30;88.00;;;;;;9200318;19;20054;-71
2024/02/04 07:09:48;;;;;;;11.40;2.20;;;9.30;87.90;;;;;;9182678;19;20014;-72
2024/02/04 07:12:53;;;;;;;12.43;2.05;;;9.30;88.00;;;;;;9181796;19;20014;-71
2024/02/04 07:16:01;;;;;;;9.43;2.10;;;9.30;87.90;;;;;;9181534;19;20029;-71
2024/02/04 07:19:07;;;;;;;15.20;1.67;;;9.30;87.70;;;;;;9189580;19;20039;-71
2024/02/04 07:22:17;;;;;;;11.55;2.10;;;9.30;87.80;;;;;;9188740;19;20022;-71
2024/02/04 07:25:23;;;;;;;10.63;2.15;;;9.30;87.70;;;;;;9191107;19;20014;-71
2024/02/04 07:28:31;;;;;;;17.45;2.15;;;9.30;87.70;;;;;;9190545;19;20491;-72
2024/02/04 07:31:37;;;;;;;18.27;3.55;;;9.20;87.50;;;;;;9190331;19;20048;-70
2024/02/04 07:34:45;;;;;;;14.73;2.70;;;9.20;87.70;;;;;;9188149;19;20014;-71
2024/02/04 07:37:53;;;;;;;10.32;2.28;;;9.20;87.50;;;;;;9189883;19;20015;-71
2024/02/04 07:41:02;;;;;;;12.93;2.17;;;9.20;87.60;;;;;;9189069;19;20361;-72
2024/02/04 07:44:07;;;;;;;11.93;2.40;;;9.20;87.50;;;;;;9192240;19;20035;-69
2024/02/04 07:47:16;;;;;;;19.33;2.55;;;9.20;87.50;;;;;;9187596;19;20024;-72
2024/02/04 07:50:21;;;;;;;15.20;2.13;;;9.20;87.50;;;;;;9199496;19;20326;-72
2024/02/04 07:53:31;;;;;;;15.80;2.72;;;9.20;87.40;;;;;;9200575;19;20025;-71
2024/02/04 07:56:37;;;;;;;8.15;2.10;;;9.30;87.40;;;;;;9196281;19;20480;-73
2024/02/04 07:59:45;;;;;;;20.88;4.30;;;9.20;87.40;;;;;;9193687;19;20018;-71
2024/02/04 08:02:50;;;;;;;10.10;1.98;;;9.30;87.40;;;;;;9190262;19;20019;-72
2024/02/04 08:05:58;;;;;;;17.45;2.42;;;9.30;87.60;;;;;;9194026;19;20014;-71
2024/02/04 08:09:06;;;;;;;9.55;1.60;;;9.20;87.30;;;;;;9188788;19;20349;-71
2024/02/04 08:12:14;;;;;;;7.15;2.00;;;9.30;87.50;;;;;;9192614;19;20497;-72
2024/02/04 08:15:19;;;;;;;10.88;1.60;;;9.30;87.60;;;;;;9191976;19;20042;-72
2024/02/04 08:18:27;;;;;;;10.38;2.10;;;9.30;87.40;;;;;;9201761;19;20014;-74
2024/02/04 08:21:33;;;;;;;11.88;2.28;;;9.30;88.10;;;;;;9199070;19;20006;-73
2024/02/04 08:24:43;;;;;;;5.50;1.77;;;9.30;87.50;;;;;;9203891;19;20021;-71
2024/02/04 08:27:49;;;;;;;5.25;2.00;;;9.40;87.60;;;;;;9199558;19;20026;-72
2024/02/04 08:30:56;;;;;;;14.10;2.00;;;9.40;87.70;;;;;;9182954;19;20014;-73
2024/02/04 08:34:02;;;;;;;10.18;2.30;;;9.40;87.60;;;;;;9181983;19;20022;-73
2024/02/04 08:37:10;;;;;;;8.05;1.85;;;9.50;87.90;;;;;;9181684;19;20022;-71
2024/02/04 08:40:18;;;;;;;6.28;2.10;;;9.50;87.60;;;;;;9176289;19;20022;-72
2024/02/04 08:43:26;;;;;;;29.00;2.42;;;9.50;87.70;;;;;;9179509;19;20014;-80
2024/02/04 08:46:39;;;;;;;9.98;1.90;;;9.60;88.00;;;;;;9183245;19;20040;-75
2024/02/04 08:49:47;;;;;;;9.75;1.60;;;9.60;88.00;;;;;;9189342;19;20037;-74
2024/02/04 08:52:52;;;;;;;5.47;1.45;;;9.50;87.80;;;;;;9186932;19;20821;-74
2024/02/04 08:56:04;;;;;;;7.82;1.35;;;9.70;87.80;;;;;;9187563;19;20018;-73
2024/02/04 08:59:10;;;;;;;7.43;1.73;;;9.70;87.60;;;;;;9185391;19;20023;-74
2024/02/04 09:02:17;;;;;;;8.30;1.40;;;9.80;87.60;;;;;;9186042;19;20015;-74
2024/02/04 09:05:23;;;;;;;7.35;1.77;;;9.70;87.60;;;;;;9184195;19;20074;-73
2024/02/04 09:08:31;;;;;;;8.20;1.25;;;9.80;87.50;;;;;;9179181;19;20030;-74
2024/02/04 09:11:39;;;;;;;5.43;1.33;;;9.80;87.50;;;;;;9180314;19;20035;-74
2024/02/04 09:14:46;;;;;;;3.80;1.30;;;9.90;87.50;;;;;;9183245;19;20022;-73
2024/02/04 09:17:52;;;;;;;10.48;3.55;;;9.90;87.40;;;;;;9180820;19;20535;-73
2024/02/04 09:21:02;;;;;;;8.45;1.60;;;9.90;87.30;;;;;;9175373;19;20454;-72
2024/02/04 09:24:08;;;;;;;10.85;1.75;;;9.90;87.20;;;;;;9174603;19;20015;-73
2024/02/04 09:27:18;;;;;;;5.28;1.35;;;10.00;87.30;;;;;;9174316;19;20019;-73
2024/02/04 09:30:24;;;;;;;6.57;1.70;;;10.00;87.30;;;;;;9176942;19;20015;-73
2024/02/04 09:33:32;;;;;;;7.25;1.73;;;10.10;87.30;;;;;;9173440;19;20017;-73
2024/02/04 09:36:37;;;;;;;6.43;1.95;;;10.10;87.20;;;;;;9174726;19;20475;-73
2024/02/04 09:39:45;;;;;;;4.93;1.60;;;10.10;87.20;;;;;;9174282;19;20014;-73
2024/02/04 09:42:55;;;;;;;3.63;1.63;;;10.30;87.20;;;;;;9179258;19;20018;-73
2024/02/04 09:46:03;;;;;;;4.10;1.70;;;10.20;87.10;;;;;;9180131;19;20508;-75
2024/02/04 09:49:11;;;;;;;9.73;2.95;;;10.20;87.10;;;;;;9180670;19;20007;-74
2024/02/04 09:52:22;;;;;;;9.23;2.35;;;10.30;87.10;;;;;;9177067;19;20078;-73
2024/02/04 09:55:29;;;;;;;8.02;2.00;;;10.30;87.10;;;;;;9179677;19;20023;-74
2024/02/04 09:58:39;;;;;;;12.70;2.63;;;10.30;87.10;;;;;;9180482;19;20086;-72
2024/02/04 10:01:46;;;;;;;4.95;2.67;;;10.40;87.10;;;;;;9178430;19;20662;-73
2024/02/04 10:04:54;;;;;;;8.90;3.05;;;10.40;87.20;;;;;;9180736;19;20014;-74
2024/02/04 10:08:00;;;;;;;9.27;3.33;;;10.40;87.20;;;;;;9174793;19;20127;-74
2024/02/04 10:11:08;;;;;;;6.97;2.97;;;10.50;87.10;;;;;;9168722;19;20017;-72
2024/02/04 10:14:20;;;;;;;7.28;2.60;;;10.50;87.10;;;;;;9169226;19;20111;-73
2024/02/04 10:17:28;;;;;;;14.70;4.70;;;10.50;87.10;;;;;;9167578;19;20021;-74
2024/02/04 10:20:33;;;;;;;8.70;2.80;;;10.50;87.10;;;;;;9178166;19;20477;-72
2024/02/04 10:23:41;;;;;;;7.10;3.17;;;10.50;87.30;;;;;;9177772;19;20015;-71
2024/02/04 10:26:47;;;;;;;13.73;3.58;;;10.70;87.30;;;;;;9184823;19;20014;-74
2024/02/04 10:29:58;;;;;;;9.35;3.30;;;10.60;87.50;;;;;;9185624;19;20022;-73
2024/02/04 10:33:03;;;;;;;8.68;3.22;;;10.60;87.10;;;;;;9185187;19;20022;-73
2024/02/04 10:36:11;;;;;;;6.28;3.00;;;10.70;87.20;;;;;;9183887;19;20030;-73
2024/02/04 10:39:17;;;;;;;16.67;3.92;;;10.70;87.20;;;;;;9179944;19;20017;-72
2024/02/04 10:42:28;;;;;;;11.07;3.28;;;10.80;87.60;;;;;;9180981;19;20050;-75
2024/02/04 10:45:42;;;;;;;10.50;3.50;;;10.80;87.20;;;;;;9176408;19;20289;-73
2024/02/04 10:48:57;;;;;;;6.30;3.13;;;10.80;87.90;;;;;;9178138;19;20025;-72
2024/02/04 10:52:03;;;;;;;4.82;3.25;;;10.80;87.30;;;;;;9179958;19;20026;-74
2024/02/04 10:55:13;;;;;;;7.28;3.28;;;10.80;87.40;;;;;;9178610;19;20011;-71
2024/02/04 10:58:19;;;;;;;9.30;3.53;;;10.90;87.40;;;;;;9180434;19;20044;-74
2024/02/04 11:01:29;;;;;;;11.90;3.40;;;10.90;87.50;;;;;;9177226;19;20010;-73
2024/02/04 11:04:36;;;;;;;6.55;2.75;;;10.90;87.40;;;;;;9179327;19;20030;-73
2024/02/04 11:07:45;;;;;;;6.40;2.92;;;10.90;87.30;;;;;;9185217;19;20010;-74
2024/02/04 11:10:59;;;;;;;8.45;2.88;;;11.00;87.40;;;;;;9176237;19;20014;-80
2024/02/04 11:18:23;;;;;;;6.95;3.45;;;11.20;87.50;;;;;;9174967;19;20014;-79
2024/02/04 11:21:51;;;;;;;9.45;2.70;;;11.00;87.70;;;;;;9169842;19;20056;-79
2024/02/04 11:25:10;;;;;;;6.85;2.53;;;10.80;87.20;;;;;;9183544;19;20349;-79
2024/02/04 11:28:33;;;;;;;8.38;2.22;;;11.10;87.50;;;;;;9182691;19;20022;-79
2024/02/04 11:31:50;;;;;;;5.65;2.72;;;11.20;87.70;;;;;;9186170;19;20011;-77
2024/02/04 11:35:11;;;;;;;7.63;3.28;;;11.30;88.40;;;;;;9185472;19;20030;-78
2024/02/04 11:38:31;;;;;;;7.35;2.78;;;11.10;87.30;;;;;;9188742;19;20765;-79
2024/02/04 11:41:58;;;;;;;8.25;2.65;;;11.20;87.50;;;;;;9184290;19;20029;-79
2024/02/04 11:45:15;;;;;;;5.80;2.15;;;11.30;87.30;;;;;;9184005;19;20364;-79
2024/02/04 11:48:33;;;;;;;6.25;2.03;;;11.20;87.40;;;;;;9181209;19;20022;-79
2024/02/04 11:52:02;;;;;;;7.13;1.95;;;11.30;87.50;;;;;;9182806;19;20030;-79
2024/02/04 11:55:19;;;;;;;4.35;1.60;;;11.20;87.20;;;;;;9182640;19;20018;-79
2024/02/04 11:58:37;;;;;;;3.88;1.30;;;11.30;87.30;;;;;;9181996;19;20600;-79
2024/02/04 12:01:57;;;;;;;1.50;1.13;;;11.70;87.50;;;;;;9179097;19;20014;-78
2024/02/04 12:05:10;;;;;;;3.40;1.10;;;11.30;87.30;;;;;;9183341;19;20015;-78
2024/02/04 12:08:40;;;;;;;3.30;1.30;;;11.20;87.00;;;;;;9177532;19;20090;-79
2024/02/04 12:11:48;;;;;;;6.68;1.48;;;11.70;86.90;;;;;;9183851;19;20018;-79
2024/02/04 12:15:23;;;;;;;3.45;0.60;;;11.30;86.70;;;;;;9181895;19;20018;-79
2024/02/04 12:18:53;;;;;;;8.68;1.10;;;10.90;86.30;;;;;;9180673;19;20532;-78
2024/02/04 12:22:05;;;;;;;5.07;1.40;;;11.60;87.30;;;;;;9173385;19;20021;-78
2024/02/04 12:25:19;;;;;;;3.03;1.00;;;11.40;87.10;;;;;;9181603;19;20082;-79
2024/02/04 12:28:30;;;;;;;6.43;1.00;;;12.30;87.40;;;;;;9182900;19;20013;-78
2024/02/04 12:31:48;;;;;;;5.35;1.38;;;11.30;87.70;;;;;;9180219;19;20633;-78
2024/02/04 12:35:16;;;;;;;3.50;1.05;;;11.30;86.50;;;;;;9180491;19;20014;-79
2024/02/04 12:38:38;;;;;;;6.80;1.05;;;11.40;86.60;;;;;;9182801;19;20106;-78
2024/02/04 12:41:56;;;;;;;4.50;1.30;;;11.30;86.40;;;;;;9179508;19;20111;-78
2024/02/04 12:45:14;;;;;;;6.85;1.60;;;11.30;86.30;;;;;;9178553;19;20034;-78
2024/02/04 12:48:35;;;;;;;3.67;1.20;;;11.30;86.60;;;;;;9179468;19;20014;-79
2024/02/04 12:51:42;;;;;;;1.73;1.05;;;11.40;86.50;;;;;;9181494;19;20014;-78
2024/02/04 12:55:10;;;;;;;5.72;1.70;;;11.40;86.30;;;;;;9180210;19;20456;-78
2024/02/04 12:58:23;;;;;;;3.35;1.35;;;11.40;86.40;;;;;;9181944;19;20022;-79
2024/02/04 13:01:53;;;;;;;3.75;1.15;;;11.40;86.00;;;;;;9176898;19;20021;-78
2024/02/04 13:05:04;;;;;;;2.83;1.63;;;11.30;86.10;;;;;;9176930;19;20488;-79
2024/02/04 13:08:17;;;;;;;4.03;1.40;;;11.40;86.10;;;;;;9176087;19;20010;-78
2024/02/04 13:11:35;;;;;;;1.88;1.10;;;11.00;85.90;;;;;;9177507;19;20472;-78
2024/02/04 13:14:57;;;;;;;2.80;1.05;;;11.10;86.20;;;;;;9179691;19;20497;-78
2024/02/04 13:18:03;;;;;;;4.55;1.00;;;11.50;86.60;;;;;;9179533;19;20022;-79
2024/02/04 13:21:28;;;;;;;4.88;1.48;;;11.50;86.10;;;;;;9175977;19;20019;-78
2024/02/04 13:24:43;;;;;;;4.53;1.40;;;11.50;86.10;;;;;;9178027;19;20389;-78
2024/02/04 13:27:53;;;;;;;4.30;1.10;;;11.50;86.40;;;;;;9176478;19;20018;-77
2024/02/04 13:31:02;;;;;;;3.85;1.13;;;11.60;86.30;;;;;;9179680;19;20070;-77
2024/02/04 13:34:25;;;;;;;;;;;;;;;;;;;;;
2024/02/04 13:37:36;;;;;;;8.75;1.38;;;12.30;86.80;;;;;;9179001;19;20052;-77
2024/02/04 13:40:44;;;;;;;5.75;1.40;;;11.60;86.60;;;;;;9177429;19;20465;-77
2024/02/04 13:43:50;;;;;;;12.32;1.70;;;11.60;86.10;;;;;;9175418;19;20105;-78
2024/02/04 13:47:00;;;;;;;4.65;1.35;;;11.60;86.00;;;;;;9177812;19;20022;-78
2024/02/04 13:50:08;;;;;;;4.13;1.00;;;11.60;86.00;;;;;;9177224;19;20010;-79
2024/02/04 13:53:16;;;;;;;2.22;0.77;;;11.60;85.80;;;;;;9177868;19;20021;-77
2024/02/04 13:56:22;;;;;;;2.13;0.98;;;11.60;85.70;;;;;;9178373;19;20124;-77
2024/02/04 13:59:30;;;;;;;2.88;1.10;;;11.60;85.90;;;;;;9175633;19;20481;-78
2024/02/04 14:02:38;;;;;;;6.32;1.00;;;11.60;85.90;;;;;;9174192;19;20006;-77
2024/02/04 14:05:46;;;;;;;3.28;1.85;;;11.60;85.80;;;;;;9174797;19;20382;-77
2024/02/04 14:08:52;;;;;;;3.88;1.10;;;11.50;85.70;;;;;;9173866;19;20468;-77
2024/02/04 14:12:00;;;;;;;1.67;0.80;;;11.60;86.40;;;;;;9177655;19;20478;-76
2024/02/04 14:15:06;;;;;;;2.90;0.73;;;11.60;86.00;;;;;;9176298;19;20516;-78
2024/02/04 14:18:20;;;;;;;2.72;0.88;;;11.50;85.70;;;;;;9177332;19;20007;-77
2024/02/04 14:21:26;;;;;;;2.65;1.15;;;11.60;85.90;;;;;;9177177;19;20015;-76
2024/02/04 14:24:33;;;;;;;2.03;0.90;;;11.60;85.90;;;;;;9179170;19;20078;-76
2024/02/04 14:27:39;;;;;;;0.70;0.70;;;11.50;85.90;;;;;;9175649;19;20353;-77
2024/02/04 14:30:51;;;;;;;7.90;1.55;;;11.50;85.90;;;;;;9177401;19;20366;-77
2024/02/04 14:34:03;;;;;;;2.40;1.00;;;11.50;86.00;;;;;;9175970;19;20010;-76
2024/02/04 14:37:11;;;;;;;1.58;0.95;;;11.50;86.00;;;;;;9172755;19;20373;-77
2024/02/04 14:40:19;;;;;;;2.03;0.88;;;11.50;86.00;;;;;;9174333;19;20017;-76
2024/02/04 14:43:27;;;;;;;2.30;1.13;;;11.40;85.90;;;;;;9169732;19;20018;-76
2024/02/04 14:46:32;;;;;;;1.17;1.05;;;11.50;86.10;;;;;;9174043;19;20476;-79
2024/02/04 14:49:43;;;;;;;5.78;2.55;;;11.40;86.10;;;;;;9173439;19;20011;-76
2024/02/04 14:52:49;;;;;;;3.55;1.27;;;11.40;86.10;;;;;;9174299;19;20010;-77
2024/02/04 14:56:01;;;;;;;4.82;1.20;;;11.40;86.40;;;;;;9171083;19;20010;-75
2024/02/04 14:59:12;;;;;;;3.03;1.33;;;11.40;86.40;;;;;;9171748;19;20018;-78
2024/02/04 15:02:31;;;;;;;1.70;1.13;;;11.50;86.50;;;;;;9174424;19;20851;-76
2024/02/04 15:05:39;;;;;;;2.60;1.13;;;11.30;86.80;;;;;;9174026;19;20018;-76
2024/02/04 15:08:48;;;;;;;2.58;1.33;;;11.40;86.20;;;;;;9170976;19;20019;-76
2024/02/04 15:11:54;;;;;;;1.92;1.10;;;11.30;86.20;;;;;;9173411;19;20014;-76
2024/02/04 15:15:03;;;;;;;5.60;1.75;;;11.30;86.30;;;;;;9173218;19;20496;-76
2024/02/04 15:18:10;;;;;;;3.53;1.40;;;11.30;86.20;;;;;;9173983;19;20015;-78
2024/02/04 15:21:24;;;;;;;3.55;1.30;;;11.20;86.30;;;;;;9174520;19;20015;-77
2024/02/04 15:24:30;;;;;;;2.35;1.40;;;11.20;86.40;;;;;;9174734;19;20018;-77
2024/02/04 15:27:38;;;;;;;3.15;1.48;;;11.20;86.50;;;;;;9173139;19;20041;-77
2024/02/04 15:30:56;;;;;;;4.00;1.70;;;11.20;86.50;;;;;;9172238;19;20017;-77
2024/02/04 15:34:08;;;;;;;3.65;2.05;;;11.10;86.60;;;;;;9170496;19;20562;-77
2024/02/04 15:37:28;;;;;;;5.28;2.13;;;11.10;86.70;;;;;;9172942;19;20018;-77
2024/02/04 15:40:36;;;;;;;8.82;2.72;;;11.10;86.70;;;;;;9174146;19;20023;-77
2024/02/04 15:43:43;;;;;;;6.50;2.03;;;11.10;87.00;;;;;;9169701;19;20042;-76
2024/02/04 15:46:54;;;;;;;5.70;2.13;;;11.20;87.50;;;;;;9172367;19;20021;-79
2024/02/04 15:50:00;;;;;;;10.07;2.30;;;11.10;86.90;;;;;;9172744;19;20489;-77
2024/02/04 15:53:12;;;;;;;4.95;2.30;;;11.10;86.90;;;;;;9171711;19;20019;-76
2024/02/04 15:56:23;;;;;;;6.22;2.78;;;11.10;87.10;;;;;;9171104;19;20089;-77
2024/02/04 15:59:44;;;;;;;8.95;2.70;;;11.10;87.20;;;;;;9172360;19;20010;-77
2024/02/04 16:02:51;;;;;;;7.43;3.03;;;11.00;87.10;;;;;;9171886;19;20019;-75
2024/02/04 16:06:00;;;;;;;4.45;2.30;;;11.00;87.20;;;;;;9173464;19;20014;-76
2024/02/04 16:09:09;;;;;;;6.82;2.35;;;11.10;87.40;;;;;;9176916;19;20009;-75
2024/02/04 16:12:21;;;;;;;7.80;2.78;;;11.10;87.40;;;;;;9180765;19;20018;-76
2024/02/04 16:15:29;;;;;;;8.88;3.47;;;11.10;87.50;;;;;;9180765;19;20064;-78
2024/02/04 16:18:37;;;;;;;10.55;2.90;;;11.10;87.80;;;;;;9183398;19;20476;-76
2024/02/04 16:21:44;;;;;;;3.90;2.67;;;11.10;87.80;;;;;;9176050;19;20473;-78
2024/02/04 16:24:57;;;;;;;10.15;2.85;;;11.10;87.80;;;;;;9180120;19;20007;-77
2024/02/04 16:28:03;;;;;;;7.93;3.03;;;11.00;87.60;;;;;;9179405;19;20018;-76